Time;durP1;ratioP1;P1;durP2;ratioP2;P2;SDS_P1;SDS_P2;PMS_P1;PMS_P2;Temp;Humidity;BMP_temperature;BMP_pressure;BME280_temperature;BME280_humidity;BME280_pressure;Samples;Min_cycle;Max_cycle;Signal;HPM_P1;HPM_P2
2022/07/12 00:01:40;;;;;;;2.23;2.13;;;35.00;56.10;;;;;;5112797;28;20544;-65
2022/07/12 00:04:11;;;;;;;1.67;1.57;;;34.90;55.50;;;;;;5116526;28;20439;-65
2022/07/12 00:06:42;;;;;;;2.50;2.30;;;34.90;53.50;;;;;;5110351;28;20449;-65
2022/07/12 00:09:15;;;;;;;1.90;1.80;;;34.80;53.80;;;;;;5114286;28;20457;-65
2022/07/12 00:11:46;;;;;;;2.60;1.90;;;34.80;53.30;;;;;;5112054;28;20459;-65
2022/07/12 00:14:17;;;;;;;2.10;2.00;;;34.70;53.60;;;;;;5124802;28;20996;-65
2022/07/12 00:16:48;;;;;;;2.13;2.03;;;34.60;53.00;;;;;;5124594;28;20450;-67
2022/07/12 00:19:19;;;;;;;2.10;2.00;;;34.70;52.20;;;;;;5125230;28;20448;-65
2022/07/12 00:21:50;;;;;;;1.70;1.60;;;34.40;51.60;;;;;;5116371;28;20449;-65
2022/07/12 00:24:23;;;;;;;1.50;1.40;;;34.20;53.00;;;;;;5124580;28;20463;-65
2022/07/12 00:26:53;;;;;;;1.40;1.30;;;34.10;52.60;;;;;;5117259;28;20464;-65
2022/07/12 00:29:24;;;;;;;1.47;1.37;;;34.10;51.80;;;;;;5115310;28;20623;-65
2022/07/12 00:31:57;;;;;;;1.90;1.80;;;34.10;50.80;;;;;;5117066;28;20441;-65
2022/07/12 00:34:28;;;;;;;1.63;1.53;;;34.10;52.40;;;;;;5125021;28;21968;-64
2022/07/12 00:36:59;;;;;;;1.60;1.50;;;34.00;52.10;;;;;;5114681;28;20457;-67
2022/07/12 00:39:31;;;;;;;1.57;1.47;;;34.00;52.40;;;;;;5104729;28;20460;-64
2022/07/12 00:42:02;;;;;;;1.73;1.63;;;33.90;52.80;;;;;;5105421;28;20472;-67
2022/07/12 00:44:34;;;;;;;1.63;1.53;;;33.90;52.90;;;;;;5104879;28;20446;-64
2022/07/12 00:47:06;;;;;;;1.73;1.63;;;33.80;53.80;;;;;;5104052;28;20443;-68
2022/07/12 00:49:40;;;;;;;1.77;1.67;;;33.70;53.80;;;;;;5088084;28;20523;-67
2022/07/12 00:52:11;;;;;;;1.80;1.70;;;33.80;54.90;;;;;;5108398;28;20457;-67
2022/07/12 00:54:44;;;;;;;1.70;1.60;;;33.80;54.80;;;;;;5104684;28;20459;-67
2022/07/12 00:57:14;;;;;;;1.60;1.50;;;33.70;55.00;;;;;;5104060;28;20451;-67
2022/07/12 00:59:45;;;;;;;1.77;1.67;;;33.50;55.60;;;;;;5088171;28;20450;-67
2022/07/12 01:02:16;;;;;;;2.00;1.90;;;33.60;56.10;;;;;;5109877;28;20449;-65
2022/07/12 01:04:48;;;;;;;2.00;1.90;;;33.60;55.20;;;;;;5109035;28;20443;-65
2022/07/12 01:07:19;;;;;;;2.33;2.13;;;33.60;55.90;;;;;;5102997;28;20885;-65
2022/07/12 01:09:52;;;;;;;1.63;1.53;;;33.60;55.60;;;;;;5087771;28;20453;-65
2022/07/12 01:12:24;;;;;;;1.77;1.67;;;33.60;55.70;;;;;;5114371;28;20471;-65
2022/07/12 01:14:55;;;;;;;1.97;1.87;;;33.70;56.00;;;;;;5124320;28;20472;-65
2022/07/12 01:17:30;;;;;;;3.03;2.80;;;33.70;56.30;;;;;;5123451;28;20508;-65
2022/07/12 01:20:02;;;;;;;1.50;1.40;;;33.80;56.30;;;;;;5107996;28;20541;-65
2022/07/12 01:22:34;;;;;;;2.03;1.93;;;33.70;55.70;;;;;;5115190;28;20467;-65
2022/07/12 01:25:07;;;;;;;1.67;1.57;;;33.80;56.50;;;;;;5123933;28;20453;-64
2022/07/12 01:27:40;;;;;;;2.30;2.10;;;33.80;57.00;;;;;;5110236;28;20458;-64
2022/07/12 01:30:12;;;;;;;2.57;2.37;;;33.80;56.80;;;;;;5110803;28;20470;-65
2022/07/12 01:32:44;;;;;;;2.50;2.30;;;33.90;57.30;;;;;;5110843;28;20442;-65
2022/07/12 01:35:14;;;;;;;2.80;2.60;;;33.70;57.30;;;;;;5103104;28;20439;-65
2022/07/12 01:37:46;;;;;;;2.60;2.40;;;33.70;57.50;;;;;;5104662;28;20537;-65
2022/07/12 01:40:20;;;;;;;3.00;2.70;;;33.70;58.40;;;;;;5120613;28;20477;-65
2022/07/12 01:42:52;;;;;;;2.00;1.90;;;33.70;58.70;;;;;;5122057;28;20454;-65
2022/07/12 01:45:23;;;;;;;2.10;2.00;;;33.60;58.80;;;;;;5114035;28;20584;-65
2022/07/12 01:47:58;;;;;;;2.53;2.13;;;33.60;58.50;;;;;;5103395;28;20447;-66
2022/07/12 01:50:29;;;;;;;2.93;2.73;;;33.60;58.80;;;;;;5102497;28;20491;-65
2022/07/12 01:52:59;;;;;;;2.00;1.90;;;33.70;59.20;;;;;;5111914;28;20464;-65
2022/07/12 01:55:33;;;;;;;2.20;2.10;;;33.60;59.10;;;;;;5120979;28;20532;-65
2022/07/12 01:58:04;;;;;;;2.20;2.10;;;33.50;59.60;;;;;;5111658;28;20461;-65
2022/07/12 02:00:35;;;;;;;2.30;2.10;;;33.50;59.10;;;;;;5100669;28;20897;-65
2022/07/12 02:03:06;;;;;;;2.50;2.30;;;33.50;60.60;;;;;;5108948;28;20453;-66
2022/07/12 02:05:37;;;;;;;2.20;1.83;;;33.40;60.00;;;;;;5114998;28;20453;-65
2022/07/12 02:08:10;;;;;;;2.07;1.97;;;33.30;60.80;;;;;;5108399;28;20456;-65
2022/07/12 02:10:42;;;;;;;2.73;2.53;;;33.40;59.60;;;;;;5122996;28;20481;-65
2022/07/12 02:13:13;;;;;;;2.03;1.93;;;33.30;60.00;;;;;;5115487;28;20457;-66
2022/07/12 02:15:44;;;;;;;2.10;1.90;;;33.30;59.80;;;;;;5102697;28;20464;-66
2022/07/12 02:18:15;;;;;;;2.20;2.10;;;33.30;60.30;;;;;;5102784;28;20473;-65
2022/07/12 02:20:46;;;;;;;2.10;2.00;;;33.20;59.90;;;;;;5102210;28;20443;-65
2022/07/12 02:23:17;;;;;;;2.67;2.47;;;33.10;61.50;;;;;;5109920;28;21115;-65
2022/07/12 02:25:49;;;;;;;2.00;1.90;;;33.00;60.50;;;;;;5110814;28;20913;-65
2022/07/12 02:28:20;;;;;;;2.10;2.00;;;32.90;60.30;;;;;;5102342;28;20457;-65
2022/07/12 02:30:51;;;;;;;2.10;1.90;;;32.80;59.90;;;;;;5116921;28;20479;-65
2022/07/12 02:33:21;;;;;;;2.37;2.17;;;32.70;59.90;;;;;;5119509;28;20471;-65
2022/07/12 02:35:52;;;;;;;2.10;2.00;;;32.50;61.00;;;;;;5115403;28;20895;-65
2022/07/12 02:38:23;;;;;;;2.10;2.00;;;32.40;62.50;;;;;;5102305;28;20449;-65
2022/07/12 02:40:56;;;;;;;2.70;2.33;;;32.40;62.00;;;;;;5103639;28;20462;-65
2022/07/12 02:43:27;;;;;;;2.70;2.17;;;32.30;61.70;;;;;;5114511;28;20510;-65
2022/07/12 02:46:05;;;;;;;2.47;2.27;;;32.30;61.00;;;;;;5102133;28;20960;-65
2022/07/12 02:48:39;;;;;;;1.67;1.57;;;32.20;60.80;;;;;;5117176;28;20440;-66
2022/07/12 02:51:10;;;;;;;1.87;1.77;;;32.10;61.10;;;;;;5121445;28;20498;-65
2022/07/12 02:53:40;;;;;;;2.33;2.10;;;32.00;60.00;;;;;;5112582;28;20601;-65
2022/07/12 02:56:13;;;;;;;2.03;1.93;;;31.80;61.80;;;;;;5102050;28;20468;-65
2022/07/12 02:58:44;;;;;;;2.03;1.93;;;31.70;61.30;;;;;;5113778;28;20463;-65
2022/07/12 03:01:15;;;;;;;1.80;1.70;;;31.50;62.20;;;;;;5105380;28;20864;-65
2022/07/12 03:03:45;;;;;;;2.10;1.90;;;31.40;62.70;;;;;;5111975;28;20453;-65
2022/07/12 03:06:16;;;;;;;1.90;1.80;;;31.40;61.90;;;;;;5113690;28;20518;-65
2022/07/12 03:08:47;;;;;;;3.90;1.97;;;31.30;62.40;;;;;;5110275;28;20498;-65
2022/07/12 03:11:22;;;;;;;2.10;2.00;;;31.20;61.90;;;;;;5101343;28;20485;-65
2022/07/12 03:13:53;;;;;;;2.00;1.80;;;31.10;62.00;;;;;;5112883;28;20841;-65
2022/07/12 03:16:24;;;;;;;1.73;1.63;;;31.00;62.30;;;;;;5124677;28;20439;-65
2022/07/12 03:18:54;;;;;;;1.77;1.67;;;30.90;62.30;;;;;;5125834;28;20456;-65
2022/07/12 03:21:25;;;;;;;1.90;1.70;;;30.80;62.10;;;;;;5121586;28;20468;-64
2022/07/12 03:23:56;;;;;;;2.00;1.90;;;30.60;62.80;;;;;;5105873;28;20467;-64
2022/07/12 03:26:28;;;;;;;2.00;1.90;;;30.50;63.10;;;;;;5114876;28;20477;-66
2022/07/12 03:29:00;;;;;;;1.83;1.73;;;30.50;62.70;;;;;;5116893;28;20459;-64
2022/07/12 03:31:31;;;;;;;2.70;1.90;;;30.30;63.00;;;;;;5121676;28;20566;-64
2022/07/12 03:34:03;;;;;;;1.90;1.70;;;30.20;62.20;;;;;;5105964;28;20953;-65
2022/07/12 03:36:34;;;;;;;1.80;1.70;;;30.10;62.00;;;;;;5104159;28;20457;-66
2022/07/12 03:39:04;;;;;;;2.00;1.90;;;30.10;62.00;;;;;;5105276;28;20445;-66
2022/07/12 03:41:37;;;;;;;1.30;1.20;;;30.00;61.70;;;;;;5108172;28;20459;-65
2022/07/12 03:44:15;;;;;;;1.40;1.30;;;29.80;61.50;;;;;;5125474;28;20475;-66
2022/07/12 03:46:47;;;;;;;1.63;1.53;;;29.70;61.30;;;;;;5125125;28;20571;-66
2022/07/12 03:49:18;;;;;;;1.70;1.60;;;29.60;62.10;;;;;;5123330;28;20484;-66
2022/07/12 03:51:48;;;;;;;1.50;1.40;;;29.50;62.40;;;;;;5109213;28;20476;-66
2022/07/12 03:54:19;;;;;;;1.40;1.30;;;29.40;63.30;;;;;;5124967;28;20536;-64
2022/07/12 03:59:39;;;;;;;1.83;1.30;;;29.20;63.70;;;;;;5101536;28;20479;-65
2022/07/12 04:02:11;;;;;;;2.03;1.30;;;29.10;63.80;;;;;;5120653;28;20455;-65
2022/07/12 04:04:42;;;;;;;1.50;1.40;;;29.00;63.90;;;;;;5104935;28;20449;-65
2022/07/12 04:07:13;;;;;;;1.10;1.10;;;28.90;63.60;;;;;;5117041;28;20925;-65
2022/07/12 04:09:44;;;;;;;1.40;1.30;;;28.80;63.70;;;;;;5124688;28;20519;-65
2022/07/12 04:12:16;;;;;;;1.00;1.00;;;28.70;63.30;;;;;;5124911;28;20490;-66
2022/07/12 04:14:47;;;;;;;1.10;0.97;;;28.60;63.60;;;;;;5110380;28;20451;-64
2022/07/12 04:17:20;;;;;;;1.30;1.17;;;28.60;63.50;;;;;;5105862;28;20679;-65
2022/07/12 04:19:51;;;;;;;1.10;1.10;;;28.50;62.90;;;;;;5124732;28;20453;-65
2022/07/12 04:22:22;;;;;;;1.57;1.23;;;28.40;62.80;;;;;;5124077;28;20508;-65
2022/07/12 04:24:52;;;;;;;1.43;1.33;;;28.30;63.70;;;;;;5124650;28;20451;-65
2022/07/12 04:27:26;;;;;;;1.00;1.00;;;28.20;63.10;;;;;;5118780;28;20454;-65
2022/07/12 04:29:57;;;;;;;1.10;1.10;;;28.20;63.10;;;;;;5124220;28;20465;-65
2022/07/12 04:32:34;;;;;;;1.40;1.30;;;28.10;62.80;;;;;;5113968;28;20488;-65
2022/07/12 04:35:06;;;;;;;0.80;0.80;;;28.00;62.20;;;;;;5105235;28;21020;-65
2022/07/12 04:37:37;;;;;;;1.73;1.20;;;27.90;62.20;;;;;;5106247;28;20522;-67
2022/07/12 04:40:12;;;;;;;0.97;0.97;;;27.90;62.80;;;;;;5123553;28;20450;-65
2022/07/12 04:42:44;;;;;;;1.10;1.07;;;27.80;62.20;;;;;;5120552;28;20540;-65
2022/07/12 04:45:15;;;;;;;1.10;1.00;;;27.70;62.50;;;;;;5104224;28;20453;-65
2022/07/12 04:47:48;;;;;;;0.90;0.90;;;27.70;62.30;;;;;;5123855;28;20517;-65
2022/07/12 04:50:22;;;;;;;0.70;0.70;;;27.60;62.20;;;;;;5122760;28;20488;-65
2022/07/12 04:52:52;;;;;;;0.67;0.67;;;27.60;62.10;;;;;;5124399;28;20887;-65
2022/07/12 04:55:25;;;;;;;0.77;0.77;;;27.50;62.70;;;;;;5120705;28;20500;-65
2022/07/12 04:57:58;;;;;;;1.00;1.00;;;27.40;62.50;;;;;;5112554;28;20453;-66
2022/07/12 05:00:31;;;;;;;0.87;0.87;;;27.30;62.40;;;;;;5111878;28;20525;-65
2022/07/12 05:03:02;;;;;;;1.00;0.90;;;27.30;62.60;;;;;;5115428;28;20558;-65
2022/07/12 05:05:33;;;;;;;1.10;1.10;;;27.30;63.00;;;;;;5110457;28;20472;-65
2022/07/12 05:08:06;;;;;;;1.27;0.73;;;27.20;63.10;;;;;;5109446;28;20445;-65
2022/07/12 05:10:39;;;;;;;1.03;1.03;;;27.10;63.30;;;;;;5123299;28;20798;-65
2022/07/12 05:13:13;;;;;;;1.03;0.90;;;27.10;62.90;;;;;;5123652;28;20495;-65
2022/07/12 05:15:46;;;;;;;0.80;0.80;;;27.00;63.40;;;;;;5105891;28;20550;-65
2022/07/12 05:18:20;;;;;;;1.10;1.00;;;27.00;63.90;;;;;;5103433;28;20465;-65
2022/07/12 05:20:51;;;;;;;1.67;1.20;;;26.90;64.20;;;;;;5116571;28;20445;-66
2022/07/12 05:23:22;;;;;;;1.30;1.20;;;26.90;63.90;;;;;;5123523;28;20512;-65
2022/07/12 05:25:53;;;;;;;0.90;0.90;;;26.80;65.10;;;;;;5086827;28;20566;-65
2022/07/12 05:28:31;;;;;;;0.93;0.87;;;26.70;65.50;;;;;;5102911;28;20457;-67
2022/07/12 05:31:04;;;;;;;1.40;1.30;;;26.70;65.80;;;;;;5102849;28;20545;-66
2022/07/12 05:33:35;;;;;;;1.40;1.03;;;26.60;65.70;;;;;;5104323;28;20593;-65
2022/07/12 05:36:06;;;;;;;1.43;1.10;;;26.50;66.20;;;;;;5106044;28;21326;-66
2022/07/12 05:38:37;;;;;;;1.20;1.10;;;26.40;66.50;;;;;;5121637;28;20900;-65
2022/07/12 05:41:08;;;;;;;1.30;1.20;;;26.40;67.00;;;;;;5102388;28;20446;-65
2022/07/12 05:43:43;;;;;;;1.30;1.20;;;26.30;67.80;;;;;;5104994;28;20539;-66
2022/07/12 05:46:18;;;;;;;1.30;1.20;;;26.30;68.00;;;;;;5102530;28;20547;-66
2022/07/12 05:48:49;;;;;;;1.33;1.23;;;26.30;67.70;;;;;;5115010;28;20496;-65
2022/07/12 05:54:10;;;;;;;1.90;1.40;;;26.10;68.90;;;;;;5122963;28;20471;-65
2022/07/12 05:56:41;;;;;;;1.90;1.70;;;26.00;69.80;;;;;;5119363;28;20445;-65
2022/07/12 05:59:14;;;;;;;1.50;1.40;;;26.00;69.50;;;;;;5109724;28;20957;-65
2022/07/12 06:01:45;;;;;;;1.30;1.20;;;26.00;70.00;;;;;;5099457;28;20470;-65
2022/07/12 06:04:18;;;;;;;1.70;1.60;;;26.00;70.00;;;;;;5107016;28;20447;-65
2022/07/12 06:06:49;;;;;;;1.77;1.67;;;26.00;70.40;;;;;;5121374;28;20454;-65
2022/07/12 06:09:20;;;;;;;1.50;1.40;;;25.90;71.50;;;;;;5121051;28;20467;-66
2022/07/12 06:11:50;;;;;;;1.50;1.40;;;25.80;71.50;;;;;;5100120;28;20479;-65
2022/07/12 06:14:23;;;;;;;1.40;1.30;;;25.80;72.50;;;;;;5102473;28;20489;-65
2022/07/12 06:16:54;;;;;;;1.83;1.63;;;25.80;72.60;;;;;;5104475;28;20858;-65
2022/07/12 06:19:25;;;;;;;2.23;2.03;;;25.80;72.70;;;;;;5123076;28;20481;-66
2022/07/12 06:21:56;;;;;;;2.10;1.87;;;25.70;73.80;;;;;;5121034;28;20440;-65
2022/07/12 06:24:27;;;;;;;1.80;1.60;;;25.60;74.90;;;;;;5122682;28;20462;-66
2022/07/12 06:26:58;;;;;;;1.63;1.40;;;25.50;75.60;;;;;;5117006;28;20462;-66
2022/07/12 06:29:30;;;;;;;1.70;1.60;;;25.60;75.60;;;;;;5102429;28;20466;-67
2022/07/12 06:32:01;;;;;;;2.10;2.00;;;25.50;76.20;;;;;;5118337;28;20459;-66
2022/07/12 06:34:32;;;;;;;2.10;1.77;;;25.40;77.10;;;;;;5114747;28;20565;-66
2022/07/12 06:37:03;;;;;;;1.67;1.57;;;25.30;77.90;;;;;;5106580;28;20433;-66
2022/07/12 06:39:34;;;;;;;2.00;1.83;;;25.30;78.20;;;;;;5104273;28;20454;-66
2022/07/12 06:42:06;;;;;;;1.87;1.77;;;25.20;78.70;;;;;;5106293;28;20460;-66
2022/07/12 06:44:38;;;;;;;2.30;2.07;;;25.10;79.10;;;;;;5102406;28;20455;-66
2022/07/12 06:47:10;;;;;;;2.70;2.50;;;25.10;79.30;;;;;;5093654;28;20446;-67
2022/07/12 06:49:41;;;;;;;2.40;2.20;;;25.10;79.60;;;;;;5106808;28;20486;-67
2022/07/12 06:52:11;;;;;;;2.60;2.40;;;25.00;80.00;;;;;;5105189;28;20460;-66
2022/07/12 06:54:43;;;;;;;2.97;2.67;;;24.90;80.30;;;;;;5106730;28;21001;-66
2022/07/12 06:57:13;;;;;;;3.00;2.70;;;24.90;80.70;;;;;;5111298;28;20806;-66
2022/07/12 06:59:46;;;;;;;2.60;2.40;;;24.90;80.80;;;;;;5126314;28;20455;-66
2022/07/12 07:02:17;;;;;;;2.50;2.30;;;24.80;82.00;;;;;;5117041;28;20813;-66
2022/07/12 07:04:48;;;;;;;3.20;2.90;;;24.70;81.80;;;;;;5125666;28;20458;-66
2022/07/12 07:07:19;;;;;;;2.90;2.60;;;24.80;81.20;;;;;;5119865;28;21008;-66
2022/07/12 07:09:50;;;;;;;2.70;2.50;;;24.90;80.60;;;;;;5124909;28;20443;-66
2022/07/12 07:12:21;;;;;;;3.20;2.77;;;24.80;81.40;;;;;;5125800;28;20452;-66
2022/07/12 07:14:53;;;;;;;2.97;2.77;;;24.70;82.00;;;;;;5125589;28;20495;-66
2022/07/12 07:17:24;;;;;;;2.00;1.87;;;24.60;82.40;;;;;;5118638;28;20533;-67
2022/07/12 07:19:55;;;;;;;2.90;2.33;;;24.60;83.90;;;;;;5105667;28;20481;-66
2022/07/12 07:22:26;;;;;;;2.23;2.03;;;24.60;83.50;;;;;;5104441;28;20450;-66
2022/07/12 07:24:57;;;;;;;1.97;1.87;;;24.50;84.10;;;;;;5105494;28;20520;-65
2022/07/12 07:27:28;;;;;;;1.93;1.80;;;24.50;84.50;;;;;;5106118;28;20574;-66
2022/07/12 07:32:48;;;;;;;2.27;2.07;;;24.40;85.70;;;;;;5125384;28;20471;-66
2022/07/12 07:35:25;;;;;;;2.07;1.97;;;24.30;86.30;;;;;;5112188;28;20514;-67
2022/07/12 07:37:56;;;;;;;2.33;2.13;;;24.20;86.70;;;;;;5124248;28;20441;-66
2022/07/12 07:40:26;;;;;;;2.40;2.20;;;24.10;87.20;;;;;;5125250;28;20456;-65
2022/07/12 07:42:57;;;;;;;2.77;2.00;;;24.10;87.70;;;;;;5125102;28;21052;-66
2022/07/12 07:45:30;;;;;;;1.90;1.80;;;24.00;88.90;;;;;;5124943;28;20503;-66
2022/07/12 07:48:00;;;;;;;2.03;1.83;;;24.00;89.30;;;;;;5121166;28;20460;-66
2022/07/12 07:50:51;;;;;;;1.60;1.50;;;23.90;90.00;;;;;;5103896;28;20474;-65
2022/07/12 07:53:22;;;;;;;1.97;1.77;;;23.80;90.20;;;;;;5117501;28;20466;-67
2022/07/12 07:55:57;;;;;;;1.50;1.40;;;23.80;90.50;;;;;;5124352;28;20438;-66
2022/07/12 07:58:28;;;;;;;2.40;2.10;;;23.70;90.60;;;;;;5115398;28;20868;-66
2022/07/12 08:01:00;;;;;;;1.60;1.50;;;23.70;90.60;;;;;;5094269;28;20465;-66
2022/07/12 08:03:32;;;;;;;1.83;1.73;;;23.70;91.00;;;;;;5103737;28;20457;-66
2022/07/12 08:06:02;;;;;;;1.80;1.70;;;23.70;91.30;;;;;;5103872;28;20450;-66
2022/07/12 08:08:33;;;;;;;1.70;1.60;;;23.60;91.70;;;;;;5104610;28;20478;-66
2022/07/12 08:11:24;;;;;;;3.63;2.30;;;23.60;91.90;;;;;;5104266;28;20439;-66
2022/07/12 08:13:55;;;;;;;2.03;1.93;;;23.50;92.10;;;;;;5119899;28;20445;-67
2022/07/12 08:16:27;;;;;;;2.07;1.87;;;23.50;92.40;;;;;;5108478;28;20461;-66
2022/07/12 08:18:59;;;;;;;2.40;2.20;;;23.50;92.40;;;;;;5111034;28;20447;-66
2022/07/12 08:21:30;;;;;;;3.50;2.00;;;23.50;92.60;;;;;;5117088;28;20449;-66
2022/07/12 08:24:01;;;;;;;3.33;2.00;;;23.50;92.80;;;;;;5123888;28;20473;-65
2022/07/12 08:26:32;;;;;;;2.40;2.20;;;23.40;93.20;;;;;;5118992;28;20506;-66
2022/07/12 08:29:02;;;;;;;2.20;2.00;;;23.40;93.30;;;;;;5118185;28;20440;-66
2022/07/12 08:31:36;;;;;;;2.00;1.90;;;23.30;93.70;;;;;;5106801;28;20465;-67
2022/07/12 08:34:06;;;;;;;3.20;2.17;;;23.30;93.80;;;;;;5103959;28;20543;-67
2022/07/12 08:36:37;;;;;;;1.80;1.70;;;23.20;93.80;;;;;;5108948;28;20522;-66
2022/07/12 08:39:08;;;;;;;2.10;2.00;;;23.20;94.20;;;;;;5109568;28;20458;-65
2022/07/12 08:41:39;;;;;;;2.07;1.87;;;23.10;94.40;;;;;;5120840;28;20517;-66
2022/07/12 08:44:10;;;;;;;2.03;1.80;;;23.10;94.80;;;;;;5123564;28;20487;-67
2022/07/12 08:46:42;;;;;;;2.53;2.00;;;23.00;94.80;;;;;;5124028;28;20445;-66
2022/07/12 08:49:13;;;;;;;1.87;1.77;;;23.00;94.90;;;;;;5109021;28;20484;-65
2022/07/12 08:51:44;;;;;;;4.67;2.30;;;22.90;95.10;;;;;;5112711;28;20451;-66
2022/07/12 08:54:15;;;;;;;2.03;1.83;;;22.90;95.60;;;;;;5103687;28;20455;-66
2022/07/12 08:56:47;;;;;;;1.80;1.70;;;22.80;95.80;;;;;;5108467;28;20495;-66
2022/07/12 08:59:19;;;;;;;2.17;1.80;;;22.80;96.00;;;;;;5102495;28;20466;-65
2022/07/12 09:01:53;;;;;;;2.50;2.30;;;22.80;95.80;;;;;;5098431;28;20510;-66
2022/07/12 09:04:25;;;;;;;2.13;1.93;;;22.70;96.20;;;;;;5108233;28;20569;-66
2022/07/12 09:06:56;;;;;;;2.73;2.03;;;22.70;96.30;;;;;;5103886;28;20773;-65
2022/07/12 09:09:33;;;;;;;2.10;1.90;;;22.70;96.50;;;;;;5121582;28;20532;-64
2022/07/12 09:12:04;;;;;;;2.27;1.63;;;22.70;96.50;;;;;;5121960;28;20912;-65
2022/07/12 09:14:35;;;;;;;1.90;1.80;;;22.70;96.50;;;;;;5123351;28;20448;-65
2022/07/12 09:17:13;;;;;;;1.70;1.60;;;22.70;96.50;;;;;;5104744;28;20457;-65
2022/07/12 09:19:57;;;;;;;1.50;1.40;;;22.70;96.40;;;;;;5121318;28;20452;-65
2022/07/12 09:22:27;;;;;;;1.70;1.60;;;22.70;96.50;;;;;;5109858;28;20461;-64
2022/07/12 09:24:58;;;;;;;2.87;2.50;;;22.60;96.50;;;;;;5102817;28;20504;-65
2022/07/12 09:27:29;;;;;;;2.43;2.23;;;22.60;96.50;;;;;;5090566;28;20450;-67
2022/07/12 09:30:00;;;;;;;2.10;1.90;;;22.50;96.60;;;;;;5123497;28;20457;-64
2022/07/12 09:38:12;;;;;;;1.80;1.70;;;22.60;96.00;;;;;;5111356;28;20446;-65
2022/07/12 09:40:43;;;;;;;1.60;1.50;;;22.50;95.70;;;;;;5122851;28;20475;-65
2022/07/12 09:43:16;;;;;;;1.70;1.60;;;22.50;95.60;;;;;;5104442;28;20447;-65
2022/07/12 09:45:49;;;;;;;1.50;1.40;;;22.50;95.60;;;;;;5102278;28;20486;-65
2022/07/12 09:48:22;;;;;;;1.90;1.60;;;22.40;95.50;;;;;;5112757;28;20510;-68
2022/07/12 09:50:53;;;;;;;1.80;1.70;;;22.50;95.30;;;;;;5122018;28;20477;-66
2022/07/12 09:53:29;;;;;;;1.87;1.77;;;22.40;95.40;;;;;;5103158;28;20936;-67
2022/07/12 09:56:00;;;;;;;1.83;1.50;;;22.40;95.10;;;;;;5102279;28;20447;-66
2022/07/12 09:58:38;;;;;;;2.00;1.87;;;22.50;94.90;;;;;;5102555;28;20579;-66
2022/07/12 10:01:09;;;;;;;2.50;1.70;;;22.40;95.10;;;;;;5111319;28;20458;-64
2022/07/12 10:03:48;;;;;;;2.03;1.70;;;22.40;94.90;;;;;;5105349;28;20426;-66
2022/07/12 10:06:27;;;;;;;2.47;2.23;;;22.30;95.10;;;;;;5121513;28;20481;-66
2022/07/12 10:09:07;;;;;;;1.60;1.40;;;22.30;95.20;;;;;;5122952;28;20470;-65
2022/07/12 10:11:40;;;;;;;2.07;1.97;;;22.30;95.00;;;;;;5109700;28;20464;-65
2022/07/12 10:14:30;;;;;;;2.00;1.90;;;22.30;95.20;;;;;;5102325;28;20454;-65
2022/07/12 10:17:03;;;;;;;2.13;1.93;;;22.20;95.10;;;;;;5102316;28;20519;-65
2022/07/12 10:19:35;;;;;;;1.97;1.80;;;22.20;95.30;;;;;;5103402;28;20522;-65
2022/07/12 10:22:08;;;;;;;2.87;2.37;;;22.20;95.30;;;;;;5109798;28;20457;-65
2022/07/12 10:24:53;;;;;;;2.53;2.23;;;22.20;95.20;;;;;;5121742;28;20445;-65
2022/07/12 10:27:32;;;;;;;1.77;1.67;;;22.10;95.10;;;;;;5112257;28;20458;-64
2022/07/12 10:30:20;;;;;;;2.00;1.90;;;22.10;95.30;;;;;;5103472;28;20456;-66
2022/07/12 10:32:53;;;;;;;3.40;1.60;;;22.10;95.40;;;;;;5093723;28;20489;-65
2022/07/12 10:35:27;;;;;;;2.63;2.33;;;22.10;95.20;;;;;;5121120;28;20453;-65
2022/07/12 10:38:21;;;;;;;7.07;1.93;;;22.00;95.30;;;;;;5122051;28;20446;-65
2022/07/12 10:40:53;;;;;;;1.87;1.77;;;22.00;95.40;;;;;;5115004;28;20953;-64
2022/07/12 10:46:23;;;;;;;1.90;1.63;;;21.90;95.80;;;;;;5111168;28;20488;-65
2022/07/12 10:49:27;;;;;;;2.30;2.10;;;21.90;95.70;;;;;;5122365;28;20529;-66
2022/07/12 10:52:26;;;;;;;2.00;1.90;;;21.80;95.80;;;;;;5111567;28;20850;-65
2022/07/12 10:55:18;;;;;;;2.43;2.23;;;21.80;95.80;;;;;;5087126;28;20457;-65
2022/07/12 10:57:54;;;;;;;1.80;1.70;;;21.70;96.00;;;;;;5098878;28;20466;-65
2022/07/12 11:00:25;;;;;;;2.23;2.03;;;21.60;96.30;;;;;;5089253;28;20504;-65
2022/07/12 11:02:56;;;;;;;2.30;2.10;;;21.60;96.20;;;;;;5113664;28;20525;-65
2022/07/12 11:05:28;;;;;;;3.00;1.77;;;21.60;96.30;;;;;;5111972;28;20602;-66
2022/07/12 11:08:00;;;;;;;3.00;2.23;;;21.50;96.40;;;;;;5121762;28;20472;-64
2022/07/12 11:10:38;;;;;;;2.00;1.80;;;21.50;96.30;;;;;;5121868;28;20474;-65
2022/07/12 11:13:23;;;;;;;2.03;1.77;;;21.50;96.60;;;;;;5103061;28;20443;-65
2022/07/12 11:15:58;;;;;;;2.70;1.83;;;21.50;96.60;;;;;;5121510;28;20441;-64
2022/07/12 11:18:33;;;;;;;2.30;2.10;;;21.50;96.60;;;;;;5103038;28;20533;-64
2022/07/12 11:21:05;;;;;;;2.20;1.70;;;21.40;96.50;;;;;;5102181;28;20472;-65
2022/07/12 11:23:37;;;;;;;2.03;1.93;;;21.40;96.80;;;;;;5101726;28;21053;-65
2022/07/12 11:26:09;;;;;;;1.80;1.70;;;21.30;96.80;;;;;;5101267;28;20486;-64
2022/07/12 11:28:40;;;;;;;1.73;1.63;;;21.30;96.70;;;;;;5107701;28;20446;-65
2022/07/12 11:31:13;;;;;;;1.90;1.80;;;21.30;96.80;;;;;;5118978;28;20536;-65
2022/07/12 11:33:46;;;;;;;1.80;1.70;;;21.30;96.80;;;;;;5101467;28;20461;-64
2022/07/12 11:36:18;;;;;;;2.33;2.13;;;21.20;96.70;;;;;;5101542;28;20482;-64
2022/07/12 11:38:50;;;;;;;2.53;1.93;;;21.20;96.70;;;;;;5125097;28;20454;-64
2022/07/12 11:41:22;;;;;;;2.03;1.63;;;21.20;96.50;;;;;;5122530;28;20461;-65
2022/07/12 11:43:53;;;;;;;2.00;1.70;;;21.20;96.70;;;;;;5111371;28;20481;-66
2022/07/12 11:46:25;;;;;;;2.17;1.97;;;21.20;96.70;;;;;;5104903;28;20492;-64
2022/07/12 11:48:56;;;;;;;2.43;2.23;;;21.20;96.70;;;;;;5109560;28;20448;-64
2022/07/12 11:51:29;;;;;;;1.83;1.53;;;21.10;96.50;;;;;;5119090;28;20446;-64
2022/07/12 11:54:01;;;;;;;2.33;1.67;;;21.10;96.80;;;;;;5104956;28;20450;-64
2022/07/12 11:56:32;;;;;;;2.13;1.93;;;21.00;97.20;;;;;;5104476;28;20542;-67
2022/07/12 11:59:03;;;;;;;1.77;1.67;;;21.00;97.20;;;;;;5112907;28;20451;-64
2022/07/12 12:01:34;;;;;;;3.87;1.77;;;21.00;97.20;;;;;;5117190;28;20438;-64
2022/07/12 12:04:05;;;;;;;2.60;1.70;;;21.00;96.90;;;;;;5124906;28;20453;-65
2022/07/12 12:06:36;;;;;;;1.90;1.70;;;21.00;96.90;;;;;;5123541;28;21078;-65
2022/07/12 12:09:13;;;;;;;1.77;1.60;;;21.00;97.10;;;;;;5124960;28;20458;-65
2022/07/12 12:11:44;;;;;;;1.63;1.40;;;21.00;97.20;;;;;;5107709;28;20883;-65
2022/07/12 12:14:16;;;;;;;2.37;1.90;;;20.90;97.00;;;;;;5124088;28;20488;-65
2022/07/12 12:16:46;;;;;;;1.40;1.30;;;20.90;97.20;;;;;;5116069;28;20457;-65
2022/07/12 12:19:17;;;;;;;1.50;1.40;;;20.90;97.40;;;;;;5104493;28;20454;-65
2022/07/12 12:21:54;;;;;;;1.50;1.40;;;20.80;97.50;;;;;;5119769;28;20527;-65
2022/07/12 12:24:27;;;;;;;2.70;1.50;;;20.70;97.60;;;;;;5124387;28;20453;-65
2022/07/12 12:26:58;;;;;;;1.77;1.67;;;20.70;97.70;;;;;;5111969;28;20552;-66
2022/07/12 12:29:42;;;;;;;1.90;1.80;;;20.70;97.70;;;;;;5099604;28;20435;-65
2022/07/12 12:32:19;;;;;;;1.83;1.67;;;20.70;97.80;;;;;;5105814;28;20961;-65
2022/07/12 12:35:09;;;;;;;1.83;1.37;;;20.70;97.80;;;;;;5104074;28;20620;-65
2022/07/12 12:37:43;;;;;;;2.40;1.60;;;20.70;97.70;;;;;;5114567;28;20574;-66
2022/07/12 12:40:21;;;;;;;2.90;1.40;;;20.70;97.80;;;;;;5088018;28;20427;-65
2022/07/12 12:42:52;;;;;;;2.00;1.70;;;20.60;97.80;;;;;;5118623;28;20459;-66
2022/07/12 12:45:25;;;;;;;1.60;1.50;;;20.60;97.90;;;;;;5123497;28;20424;-65
2022/07/12 12:48:01;;;;;;;1.70;1.60;;;20.60;98.00;;;;;;5123134;28;20456;-66
2022/07/12 12:50:42;;;;;;;1.60;1.50;;;20.60;98.20;;;;;;5123586;28;20477;-65
2022/07/12 12:53:15;;;;;;;1.30;1.20;;;20.50;98.20;;;;;;5122312;28;20457;-66
2022/07/12 12:55:49;;;;;;;1.53;1.40;;;20.60;98.20;;;;;;5123969;28;20430;-65
2022/07/12 12:58:21;;;;;;;2.33;1.53;;;20.60;98.20;;;;;;5123654;28;21026;-65
2022/07/12 13:00:58;;;;;;;1.70;1.60;;;20.60;98.20;;;;;;5101505;28;20516;-65
2022/07/12 13:03:30;;;;;;;3.37;1.80;;;20.60;98.50;;;;;;5112481;28;20467;-66
2022/07/12 13:06:10;;;;;;;2.80;1.77;;;20.50;98.80;;;;;;5103151;28;20526;-66
2022/07/12 13:08:41;;;;;;;2.13;1.30;;;20.50;98.70;;;;;;5103740;28;20446;-65
2022/07/12 13:11:22;;;;;;;1.70;1.60;;;20.50;99.00;;;;;;5103852;28;20454;-65
2022/07/12 13:13:54;;;;;;;2.63;1.80;;;20.50;99.00;;;;;;5121210;28;20460;-65
2022/07/12 13:16:28;;;;;;;1.43;1.33;;;20.50;99.20;;;;;;5111975;28;20445;-65
2022/07/12 13:19:02;;;;;;;1.83;1.20;;;20.40;99.40;;;;;;5119990;28;20542;-65
2022/07/12 13:21:33;;;;;;;2.53;1.47;;;20.50;99.30;;;;;;5121331;28;20416;-66
2022/07/12 13:24:03;;;;;;;1.50;1.27;;;20.40;99.60;;;;;;5112368;28;20894;-66
2022/07/12 13:26:39;;;;;;;1.70;1.60;;;20.40;99.70;;;;;;5102959;28;20479;-65
2022/07/12 13:29:10;;;;;;;1.60;1.50;;;20.50;99.70;;;;;;5104623;28;20446;-65
2022/07/12 13:31:41;;;;;;;1.80;1.50;;;20.50;99.90;;;;;;5103198;28;20446;-64
2022/07/12 13:34:12;;;;;;;1.73;1.57;;;20.40;99.80;;;;;;5123032;28;20483;-65